Time;durP1;ratioP1;P1;durP2;ratioP2;P2;SDS_P1;SDS_P2;PMS_P1;PMS_P2;Temp;Humidity;BMP_temperature;BMP_pressure;BME280_temperature;BME280_humidity;BME280_pressure;Samples;Min_cycle;Max_cycle;Signal;HPM_P1;HPM_P2
2022/06/15 00:02:07;;;;;;;;;;;14.60;83.70;;;;;;5063190;28;19970;-68
2022/06/15 00:04:35;;;;;;;;;;;14.50;84.40;;;;;;5061465;28;19933;-67
2022/06/15 00:07:02;;;;;;;;;;;14.50;85.30;;;;;;5067368;28;20087;-68
2022/06/15 00:09:28;;;;;;;;;;;14.40;86.00;;;;;;5059216;28;19967;-68
2022/06/15 00:11:55;;;;;;;;;;;14.40;87.30;;;;;;5061319;28;20019;-68
2022/06/15 00:14:23;;;;;;;;;;;14.40;88.20;;;;;;5060263;28;20023;-68
2022/06/15 00:16:50;;;;;;;;;;;14.30;89.10;;;;;;5064459;28;19928;-68
2022/06/15 00:19:17;;;;;;;;;;;14.30;89.60;;;;;;5061600;28;19928;-68
2022/06/15 00:21:45;;;;;;;;;;;14.20;90.40;;;;;;5065002;28;20026;-67
2022/06/15 00:24:11;;;;;;;;;;;14.20;90.80;;;;;;5060760;28;20019;-67
2022/06/15 00:26:39;;;;;;;;;;;14.20;91.20;;;;;;5063715;28;19979;-68
2022/06/15 00:29:06;;;;;;;;;;;14.20;91.30;;;;;;5058765;28;19925;-68
2022/06/15 00:31:33;;;;;;;;;;;14.10;91.80;;;;;;5056247;28;20019;-68
2022/06/15 00:34:00;;;;;;;;;;;14.00;92.40;;;;;;5069643;28;20023;-67
2022/06/15 00:36:26;;;;;;;;;;;14.00;93.30;;;;;;5065007;28;19924;-67
2022/06/15 00:38:55;;;;;;;;;;;13.90;93.80;;;;;;5058870;28;19964;-67
2022/06/15 00:41:23;;;;;;;;;;;13.90;94.20;;;;;;5062549;28;19924;-67
2022/06/15 00:43:51;;;;;;;;;;;13.80;94.80;;;;;;5060466;28;20023;-67
2022/06/15 00:46:24;;;;;;;;;;;13.70;95.50;;;;;;5059881;28;20364;-67
2022/06/15 00:48:53;;;;;;;;;;;13.60;96.30;;;;;;5059654;28;20011;-67
2022/06/15 00:51:20;;;;;;;;;;;13.50;97.10;;;;;;5063016;28;19943;-67
2022/06/15 00:53:47;;;;;;;;;;;13.40;97.80;;;;;;5061269;28;19933;-67
2022/06/15 00:56:15;;;;;;;;;;;13.30;98.60;;;;;;5056726;28;19930;-67
2022/06/15 00:58:44;;;;;;;;;;;13.20;99.60;;;;;;5061754;28;19929;-68
2022/06/15 01:01:11;;;;;;;;;;;13.10;99.90;;;;;;5063627;28;19932;-67
2022/06/15 01:03:38;;;;;;;;;;;13.10;99.90;;;;;;5063774;28;22287;-67
2022/06/15 01:06:09;;;;;;;;;;;13.00;99.90;;;;;;5064469;28;19930;-67
2022/06/15 01:08:40;;;;;;;;;;;13.00;99.90;;;;;;5062499;28;20019;-67
2022/06/15 01:11:30;;;;;;;;;;;12.90;99.90;;;;;;5059280;28;19975;-67
2022/06/15 01:14:09;;;;;;;;;;;12.90;99.90;;;;;;5063102;28;19925;-67
2022/06/15 01:16:40;;;;;;;;;;;12.90;99.90;;;;;;5062700;28;19934;-67
2022/06/15 01:19:13;;;;;;;;;;;12.90;99.90;;;;;;5056353;28;19971;-67
2022/06/15 01:21:44;;;;;;;;;;;12.90;99.90;;;;;;5055276;28;20319;-67
2022/06/15 01:24:25;;;;;;;;;;;12.80;99.90;;;;;;5055655;28;19932;-67
2022/06/15 01:27:19;;;;;;;;;;;12.70;99.90;;;;;;5059284;28;20445;-67
2022/06/15 01:30:00;;;;;;;;;;;12.60;99.90;;;;;;5058811;28;19959;-67
2022/06/15 01:32:32;;;;;;;;;;;12.70;99.90;;;;;;5058490;28;19963;-67
2022/06/15 01:35:12;;;;;;;;;;;12.80;99.90;;;;;;5056357;28;19967;-68
2022/06/15 01:37:43;;;;;;;;;;;12.80;99.90;;;;;;5058827;28;20031;-68
2022/06/15 01:40:14;;;;;;;;;;;12.80;99.90;;;;;;5062621;28;19970;-68
2022/06/15 01:42:43;;;;;;;;;;;12.80;99.90;;;;;;5064561;28;19974;-67
2022/06/15 01:45:12;;;;;;;;;;;12.80;99.90;;;;;;5058827;28;20023;-68
2022/06/15 01:47:40;;;;;;;;;;;12.70;99.90;;;;;;5062079;28;20002;-69
2022/06/15 01:50:10;;;;;;;;;;;12.60;99.90;;;;;;5059577;28;19929;-68
2022/06/15 01:52:41;;;;;;;;;;;12.60;99.90;;;;;;5060603;28;20014;-69
2022/06/15 01:55:10;;;;;;;;;;;12.60;99.90;;;;;;5061213;28;19929;-69
2022/06/15 01:57:38;;;;;;;;;;;12.50;99.90;;;;;;5058569;28;19979;-69
2022/06/15 02:00:06;;;;;;;;;;;12.60;99.90;;;;;;5063348;28;20106;-68
2022/06/15 02:02:36;;;;;;;;;;;12.60;99.90;;;;;;5066615;28;19924;-68
2022/06/15 02:05:07;;;;;;;;;;;12.60;99.90;;;;;;5059694;28;20083;-68
2022/06/15 02:07:39;;;;;;;;;;;12.60;99.90;;;;;;5061696;28;20387;-68
2022/06/15 02:10:09;;;;;;;;;;;12.60;99.90;;;;;;5060465;28;20023;-68
2022/06/15 02:12:40;;;;;;;;;;;12.50;99.90;;;;;;5058665;28;19947;-69
2022/06/15 02:15:09;;;;;;;;;;;12.50;99.90;;;;;;5066149;28;19978;-69
2022/06/15 02:17:38;;;;;;;;;;;12.40;99.90;;;;;;5060119;28;20388;-68
2022/06/15 02:20:07;;;;;;;;;;;12.40;99.90;;;;;;5059562;28;20023;-68
2022/06/15 02:22:36;;;;;;;;;;;12.40;99.90;;;;;;5065721;28;19924;-68
2022/06/15 02:25:04;;;;;;;;;;;12.50;99.90;;;;;;5059172;28;19925;-68
2022/06/15 02:27:32;;;;;;;;;;;12.50;99.90;;;;;;5063378;28;19925;-68
2022/06/15 02:30:02;;;;;;;;;;;12.50;99.90;;;;;;5058871;28;19978;-68
2022/06/15 02:32:29;;;;;;;;;;;12.50;99.90;;;;;;5062183;28;20019;-69
2022/06/15 02:34:56;;;;;;;;;;;12.50;99.90;;;;;;5059820;28;20295;-69
2022/06/15 02:37:24;;;;;;;;;;;12.50;99.90;;;;;;5066991;28;20023;-68
2022/06/15 02:39:50;;;;;;;;;;;12.40;99.90;;;;;;5070699;28;19935;-68
2022/06/15 02:42:25;;;;;;;;;;;12.30;99.90;;;;;;5064729;28;20014;-68
2022/06/15 02:44:53;;;;;;;;;;;12.30;99.90;;;;;;5062618;28;19924;-69
2022/06/15 02:47:21;;;;;;;;;;;12.30;99.90;;;;;;5064840;28;19932;-68
2022/06/15 02:49:51;;;;;;;;;;;12.20;99.90;;;;;;5063840;28;20011;-68
2022/06/15 02:52:18;;;;;;;;;;;12.10;99.90;;;;;;5065690;28;19933;-68
2022/06/15 02:54:47;;;;;;;;;;;12.10;99.90;;;;;;5063413;28;20471;-68
2022/06/15 02:57:14;;;;;;;;;;;11.90;99.90;;;;;;5070911;28;19924;-68
2022/06/15 02:59:41;;;;;;;;;;;11.80;99.90;;;;;;5065780;28;20006;-68
2022/06/15 03:02:08;;;;;;;;;;;11.80;99.90;;;;;;5059080;28;20127;-68
2022/06/15 03:04:35;;;;;;;;;;;11.90;99.90;;;;;;5060308;28;20291;-68
2022/06/15 03:07:02;;;;;;;;;;;11.90;99.90;;;;;;5058966;28;19928;-67
2022/06/15 03:09:29;;;;;;;;;;;11.90;99.90;;;;;;5059184;28;20032;-67
2022/06/15 03:11:57;;;;;;;;;;;11.90;99.90;;;;;;5064142;28;19924;-68
2022/06/15 03:14:23;;;;;;;;;;;11.90;99.90;;;;;;5068891;28;20108;-68
2022/06/15 03:16:50;;;;;;;;;;;11.90;99.90;;;;;;5062463;28;19939;-68
2022/06/15 03:19:17;;;;;;;;;;;11.90;99.90;;;;;;5056795;28;19925;-67
2022/06/15 03:21:44;;;;;;;;;;;11.90;99.90;;;;;;5061866;28;19932;-67
2022/06/15 03:24:10;;;;;;;;;;;11.90;99.90;;;;;;5059934;28;20027;-67
2022/06/15 03:26:37;;;;;;;;;;;11.90;99.90;;;;;;5059647;28;20038;-68
2022/06/15 03:29:06;;;;;;;;;;;11.80;99.90;;;;;;5059755;28;19931;-67
2022/06/15 03:31:32;;;;;;;;;;;11.80;99.90;;;;;;5058890;28;19936;-68
2022/06/15 03:33:59;;;;;;;;;;;11.70;99.90;;;;;;5056398;28;19924;-68
2022/06/15 03:36:26;;;;;;;;;;;11.80;99.90;;;;;;5062201;28;19942;-67
2022/06/15 03:38:53;;;;;;;;;;;11.90;99.90;;;;;;5064493;28;19931;-68
2022/06/15 03:41:20;;;;;;;;;;;11.90;99.90;;;;;;5061585;28;20014;-68
2022/06/15 03:43:47;;;;;;;;;;;11.80;99.90;;;;;;5061092;28;19966;-68
2022/06/15 03:46:16;;;;;;;;;;;11.80;99.90;;;;;;5057404;28;20392;-68
2022/06/15 03:48:42;;;;;;;;;;;11.80;99.90;;;;;;5063660;28;20462;-68
2022/06/15 03:51:09;;;;;;;;;;;11.80;99.90;;;;;;5061904;28;19933;-68
2022/06/15 03:53:36;;;;;;;;;;;11.90;99.90;;;;;;5057831;28;20426;-68
2022/06/15 03:56:03;;;;;;;;;;;12.00;99.90;;;;;;5072058;28;19924;-68
2022/06/15 03:58:29;;;;;;;;;;;12.00;99.90;;;;;;5058620;28;20012;-68
2022/06/15 04:00:56;;;;;;;;;;;12.00;99.90;;;;;;5059594;28;20030;-68
2022/06/15 04:03:24;;;;;;;;;;;12.00;99.90;;;;;;5061466;28;20047;-68
2022/06/15 04:05:53;;;;;;;;;;;12.00;99.90;;;;;;5060381;28;19931;-68
2022/06/15 04:08:37;;;;;;;;;;;11.90;99.90;;;;;;5062718;28;20281;-68
2022/06/15 04:11:05;;;;;;;;;;;11.90;99.90;;;;;;5059691;28;19924;-69
2022/06/15 04:13:33;;;;;;;;;;;11.90;99.90;;;;;;5059863;28;19990;-68
2022/06/15 04:16:00;;;;;;;;;;;11.90;99.90;;;;;;5059787;28;19964;-69
2022/06/15 04:18:28;;;;;;;;;;;11.80;99.90;;;;;;5063334;28;19929;-68
2022/06/15 04:20:54;;;;;;;;;;;11.80;99.90;;;;;;5059145;28;19947;-68
2022/06/15 04:23:21;;;;;;;;;;;11.80;99.90;;;;;;5060363;28;19924;-68
2022/06/15 04:25:51;;;;;;;;;;;11.90;99.90;;;;;;5058521;28;20423;-68
2022/06/15 04:28:19;;;;;;;;;;;12.00;99.90;;;;;;5059687;28;19951;-69
2022/06/15 04:30:46;;;;;;;;;;;12.00;99.90;;;;;;5059466;28;20163;-69
2022/06/15 04:33:13;;;;;;;;;;;12.00;99.90;;;;;;5059932;28;19931;-69
2022/06/15 04:35:41;;;;;;;;;;;12.10;99.90;;;;;;5059414;28;19924;-69
2022/06/15 04:38:08;;;;;;;;;;;12.20;99.90;;;;;;5065928;28;19975;-68
2022/06/15 04:40:35;;;;;;;;;;;12.30;99.90;;;;;;5063099;28;19924;-68
2022/06/15 04:43:01;;;;;;;;;;;12.40;99.90;;;;;;5059389;28;19932;-68
2022/06/15 04:45:28;;;;;;;;;;;12.50;99.90;;;;;;5057980;28;20019;-68
2022/06/15 04:47:55;;;;;;;;;;;12.60;99.90;;;;;;5059612;28;20264;-69
2022/06/15 04:50:21;;;;;;;;;;;12.70;99.90;;;;;;5057708;28;19924;-68
2022/06/15 04:52:49;;;;;;;;;;;12.80;99.90;;;;;;5067260;28;20095;-69
2022/06/15 04:55:18;;;;;;;;;;;12.80;99.90;;;;;;5060035;28;19928;-68
2022/06/15 04:57:44;;;;;;;;;;;12.90;99.90;;;;;;5056538;28;19976;-69
2022/06/15 05:00:13;;;;;;;;;;;12.90;99.90;;;;;;5057895;28;20020;-68
2022/06/15 05:02:40;;;;;;;;;;;13.00;99.90;;;;;;5061616;28;19982;-69
2022/06/15 05:05:07;;;;;;;;;;;13.00;99.90;;;;;;5060801;28;20093;-69
2022/06/15 05:07:34;;;;;;;;;;;13.10;99.90;;;;;;5058377;28;19966;-69
2022/06/15 05:10:03;;;;;;;;;;;13.10;99.90;;;;;;5058631;28;19943;-66
2022/06/15 05:12:30;;;;;;;;;;;13.20;99.90;;;;;;5063102;28;19958;-67
2022/06/15 05:14:57;;;;;;;;;;;13.20;99.90;;;;;;5056345;28;19925;-68
2022/06/15 05:17:25;;;;;;;;;;;13.30;99.90;;;;;;5060931;28;19925;-68
2022/06/15 05:19:51;;;;;;;;;;;13.40;99.90;;;;;;5056575;28;20012;-68
2022/06/15 05:22:18;;;;;;;;;;;13.50;99.90;;;;;;5067837;28;20012;-68
2022/06/15 05:24:45;;;;;;;;;;;13.50;99.90;;;;;;5060132;28;19947;-67
2022/06/15 05:27:13;;;;;;;;;;;13.60;99.90;;;;;;5062489;28;19936;-70
2022/06/15 05:29:40;;;;;;;;;;;13.70;99.90;;;;;;5056826;28;20015;-68
2022/06/15 05:32:10;;;;;;;;;;;13.80;99.90;;;;;;5052921;28;20295;-68
2022/06/15 05:34:37;;;;;;;;;;;13.90;99.90;;;;;;5058974;28;19936;-67
2022/06/15 05:37:04;;;;;;;;;;;13.90;99.90;;;;;;5056505;28;19925;-68
2022/06/15 05:39:30;;;;;;;;;;;14.00;99.90;;;;;;5054481;28;19971;-68
2022/06/15 05:41:57;;;;;;;;;;;14.00;99.90;;;;;;5054879;28;19994;-68
2022/06/15 05:44:32;;;;;;;;;;;14.10;99.90;;;;;;5051628;28;20063;-68
2022/06/15 05:46:59;;;;;;;;;;;14.10;99.90;;;;;;5055450;28;19928;-69
2022/06/15 05:49:26;;;;;;;;;;;14.20;99.90;;;;;;5055256;28;19960;-69
2022/06/15 05:51:53;;;;;;;;;;;14.30;99.90;;;;;;5054776;28;19962;-69
2022/06/15 05:54:20;;;;;;;;;;;14.40;99.90;;;;;;5064233;28;20023;-70
2022/06/15 05:56:47;;;;;;;;;;;14.50;99.90;;;;;;5064095;28;19964;-68
2022/06/15 05:59:14;;;;;;;;;;;14.60;99.90;;;;;;5060755;28;19985;-69
2022/06/15 06:01:42;;;;;;;;;;;15.20;99.90;;;;;;5049306;28;20019;-67
2022/06/15 06:04:12;;;;;;;;;;;16.60;99.60;;;;;;5048736;28;19987;-68
2022/06/15 06:06:38;;;;;;;;;;;17.30;97.20;;;;;;5052667;28;19928;-68
2022/06/15 06:09:05;;;;;;;;;;;18.20;94.00;;;;;;5061742;28;20450;-68
2022/06/15 06:11:32;;;;;;;;;;;18.30;94.20;;;;;;5066340;28;20011;-69
2022/06/15 06:13:59;;;;;;;;;;;18.90;91.10;;;;;;5061295;28;20460;-66
2022/06/15 06:16:26;;;;;;;;;;;19.30;91.20;;;;;;5057753;28;20015;-67
2022/06/15 06:18:54;;;;;;;;;;;19.70;87.40;;;;;;5057992;28;19935;-69
2022/06/15 06:21:21;;;;;;;;;;;19.80;84.60;;;;;;5063278;28;20012;-68
2022/06/15 06:23:48;;;;;;;;;;;19.80;83.70;;;;;;5058200;28;19990;-70
2022/06/15 06:26:18;;;;;;;;;;;21.00;79.10;;;;;;5062654;28;19940;-70
2022/06/15 06:28:45;;;;;;;;;;;20.80;74.70;;;;;;5071537;28;20015;-71
2022/06/15 06:31:12;;;;;;;;;;;21.40;72.20;;;;;;5070766;28;20458;-70
2022/06/15 06:33:39;;;;;;;;;;;21.80;64.90;;;;;;5071377;28;19959;-70
2022/06/15 06:36:08;;;;;;;;;;;20.20;69.00;;;;;;5066682;28;19924;-67
2022/06/15 06:38:36;;;;;;;;;;;19.70;71.50;;;;;;5070170;28;19994;-68
2022/06/15 06:41:03;;;;;;;;;;;20.30;71.70;;;;;;5070007;28;19924;-68
2022/06/15 06:43:30;;;;;;;;;;;20.30;70.40;;;;;;5071104;28;19931;-68
2022/06/15 06:45:57;;;;;;;;;;;21.30;67.20;;;;;;5065813;28;20346;-67
2022/06/15 06:48:24;;;;;;;;;;;21.30;62.50;;;;;;5069671;28;20368;-68
2022/06/15 06:50:52;;;;;;;;;;;22.00;62.00;;;;;;5059191;28;19933;-68
2022/06/15 06:53:20;;;;;;;;;;;22.70;58.30;;;;;;5054032;28;20466;-68
2022/06/15 06:55:47;;;;;;;;;;;21.90;57.70;;;;;;5062946;28;19992;-68
2022/06/15 06:58:14;;;;;;;;;;;22.00;58.30;;;;;;5059332;28;19924;-68
2022/06/15 07:00:40;;;;;;;;;;;23.00;53.90;;;;;;5057106;28;19932;-68
2022/06/15 07:03:07;;;;;;;;;;;22.50;54.50;;;;;;5063834;28;19976;-69
2022/06/15 07:05:34;;;;;;;;;;;21.90;55.40;;;;;;5059140;28;20391;-68
2022/06/15 07:08:01;;;;;;;;;;;21.70;54.20;;;;;;5062395;28;20076;-69
2022/06/15 07:10:30;;;;;;;;;;;22.00;54.10;;;;;;5063692;28;19924;-68
2022/06/15 07:12:57;;;;;;;;;;;21.60;54.40;;;;;;5066213;28;20272;-69
2022/06/15 07:15:23;;;;;;;;;;;22.30;53.40;;;;;;5062530;28;19931;-69
2022/06/15 07:17:50;;;;;;;;;;;24.00;49.30;;;;;;5059025;28;19928;-68
2022/06/15 07:20:18;;;;;;;;;;;23.40;48.50;;;;;;5065944;28;20015;-70
2022/06/15 07:22:44;;;;;;;;;;;23.40;47.60;;;;;;5053216;28;19933;-69
2022/06/15 07:25:12;;;;;;;;;;;23.70;48.30;;;;;;5062493;28;19931;-69
2022/06/15 07:27:41;;;;;;;;;;;24.00;47.60;;;;;;5060363;28;20434;-69
2022/06/15 07:30:09;;;;;;;;;;;23.10;50.20;;;;;;5059987;28;19925;-69
2022/06/15 07:32:37;;;;;;;;;;;24.10;46.80;;;;;;5057571;28;20030;-69
2022/06/15 07:35:04;;;;;;;;;;;23.70;45.10;;;;;;5057122;28;20402;-69
2022/06/15 07:37:31;;;;;;;;;;;22.70;47.50;;;;;;5068963;28;19963;-69
2022/06/15 07:39:58;;;;;;;;;;;23.60;47.70;;;;;;5061257;28;19976;-71
2022/06/15 07:42:25;;;;;;;;;;;24.00;45.70;;;;;;5060955;28;19978;-70
2022/06/15 07:44:53;;;;;;;;;;;24.40;47.80;;;;;;5061095;28;20272;-69
2022/06/15 07:50:04;;;;;;;;;;;23.70;44.80;;;;;;5058992;28;19994;-69
2022/06/15 07:52:32;;;;;;;;;;;23.30;44.10;;;;;;5061212;28;20011;-69
2022/06/15 07:54:59;;;;;;;;;;;23.20;44.70;;;;;;5062347;28;20000;-70
2022/06/15 07:57:25;;;;;;;;;;;23.80;42.80;;;;;;5058000;28;19924;-69
2022/06/15 07:59:54;;;;;;;;;;;24.30;43.00;;;;;;5055208;28;19954;-69
2022/06/15 08:02:21;;;;;;;;;;;24.00;41.40;;;;;;5059357;28;20395;-70
2022/06/15 08:04:47;;;;;;;;;;;24.20;42.20;;;;;;5060245;28;19940;-70
2022/06/15 08:07:15;;;;;;;;;;;24.30;40.80;;;;;;5057558;28;19928;-69
2022/06/15 08:09:42;;;;;;;;;;;24.30;38.80;;;;;;5056374;28;20395;-70
2022/06/15 08:12:14;;;;;;;;;;;23.90;40.00;;;;;;5057285;28;19929;-69
2022/06/15 08:14:43;;;;;;;;;;;24.80;40.50;;;;;;5058067;28;19934;-70
2022/06/15 08:17:12;;;;;;;;;;;24.10;39.40;;;;;;5058349;28;20351;-69
2022/06/15 08:19:42;;;;;;;;;;;25.00;39.00;;;;;;5058664;28;19994;-70
2022/06/15 08:22:09;;;;;;;;;;;25.20;38.30;;;;;;5065680;28;19925;-69
2022/06/15 08:24:36;;;;;;;;;;;;;;;;;;5058630;28;20272;-69
2022/06/15 08:27:04;;;;;;;;;;;24.10;38.10;;;;;;5056983;28;20304;-70
2022/06/15 08:29:31;;;;;;;;;;;24.80;36.50;;;;;;5055774;28;19924;-69
2022/06/15 08:31:57;;;;;;;;;;;24.60;35.20;;;;;;5060726;28;20365;-69
2022/06/15 08:34:27;;;;;;;;;;;25.20;35.20;;;;;;5058652;28;19924;-69
2022/06/15 08:36:54;;;;;;;;;;;25.00;35.20;;;;;;5058561;28;19977;-69
2022/06/15 08:39:21;;;;;;;;;;;24.60;35.20;;;;;;5067096;28;19928;-69
2022/06/15 08:41:51;;;;;;;;;;;24.30;35.00;;;;;;5066296;28;20027;-69
2022/06/15 08:44:23;;;;;;;;;;;24.90;36.40;;;;;;5057966;28;19929;-69
2022/06/15 08:46:54;;;;;;;;;;;24.80;34.80;;;;;;5059626;28;19971;-69
2022/06/15 08:49:36;;;;;;;;;;;24.40;33.60;;;;;;5058451;28;20034;-68
2022/06/15 08:52:05;;;;;;;;;;;23.80;35.40;;;;;;5062616;28;19928;-68
2022/06/15 08:54:37;;;;;;;;;;;25.20;34.60;;;;;;5052894;28;19925;-69
2022/06/15 08:57:08;;;;;;;;;;;25.10;31.70;;;;;;5050831;28;19933;-69
2022/06/15 08:59:39;;;;;;;;;;;24.00;32.30;;;;;;5055976;28;19955;-68
2022/06/15 09:02:09;;;;;;;;;;;24.70;32.90;;;;;;5063148;28;20372;-69
2022/06/15 09:04:41;;;;;;;;;;;24.70;30.60;;;;;;5059225;28;19947;-68
2022/06/15 09:07:15;;;;;;;;;;;24.70;30.10;;;;;;5062462;28;19925;-69
2022/06/15 09:09:49;;;;;;;;;;;24.30;31.90;;;;;;5061989;28;20019;-68
2022/06/15 09:15:12;;;;;;;;;;;24.00;31.50;;;;;;5059216;28;19969;-69
2022/06/15 09:17:39;;;;;;;;;;;25.00;29.70;;;;;;5063933;28;19924;-70
2022/06/15 09:20:09;;;;;;;;;;;25.00;30.00;;;;;;5059216;28;20425;-69
2022/06/15 09:22:39;;;;;;;;;;;25.20;29.80;;;;;;5050191;28;20023;-69
2022/06/15 09:25:09;;;;;;;;;;;24.60;30.90;;;;;;5055375;28;19935;-69
2022/06/15 09:27:39;;;;;;;;;;;24.90;30.30;;;;;;5061596;28;20080;-66
2022/06/15 09:30:08;;;;;;;;;;;25.90;29.60;;;;;;5057361;28;20939;-65
2022/06/15 09:32:36;;;;;;;;;;;26.20;27.20;;;;;;5062160;28;20374;-65
2022/06/15 09:35:06;;;;;;;;;;;26.10;27.70;;;;;;5063148;28;19932;-65
2022/06/15 09:37:36;;;;;;;;;;;25.60;28.10;;;;;;5058666;28;19968;-69
2022/06/15 09:40:04;;;;;;;;;;;25.30;29.30;;;;;;5056983;28;20015;-70
2022/06/15 09:42:38;;;;;;;;;;;25.80;29.00;;;;;;5056100;28;19931;-69
2022/06/15 09:45:09;;;;;;;;;;;25.30;29.00;;;;;;5056615;28;19991;-70
2022/06/15 09:47:41;;;;;;;;;;;25.20;28.60;;;;;;5056432;28;19983;-69
2022/06/15 09:50:14;;;;;;;;;;;24.60;29.40;;;;;;5060128;28;19951;-69
2022/06/15 09:52:48;;;;;;;;;;;24.80;29.10;;;;;;5067538;28;19982;-69
2022/06/15 09:55:22;;;;;;;;;;;25.20;28.00;;;;;;5059270;28;19959;-69
2022/06/15 09:57:49;;;;;;;;;;;25.00;27.90;;;;;;5063409;28;20326;-69
2022/06/15 10:00:17;;;;;;;;;;;24.50;28.30;;;;;;5063778;28;20014;-70
2022/06/15 10:02:45;;;;;;;;;;;24.70;30.30;;;;;;5066095;28;19972;-70
2022/06/15 10:05:16;;;;;;;;;;;24.80;29.00;;;;;;5066501;28;19978;-70
2022/06/15 10:07:45;;;;;;;;;;;24.90;28.00;;;;;;5063902;28;19925;-71
2022/06/15 10:10:17;;;;;;;;;;;24.60;27.50;;;;;;5060722;28;20027;-71
2022/06/15 10:12:58;;;;;;;;;;;24.80;29.30;;;;;;5065797;28;20284;-70
2022/06/15 10:15:27;;;;;;;;;;;24.60;28.50;;;;;;5057750;28;20368;-69
2022/06/15 10:17:56;;;;;;;;;;;23.40;28.90;;;;;;5059479;28;19939;-69
2022/06/15 10:20:35;;;;;;;;;;;23.60;30.00;;;;;;5069663;28;19934;-68
2022/06/15 10:23:06;;;;;;;;;;;23.60;29.00;;;;;;5064745;28;19924;-71
2022/06/15 10:25:36;;;;;;;;;;;23.40;31.60;;;;;;5058297;28;19925;-70
2022/06/15 10:28:13;;;;;;;;;;;23.70;29.50;;;;;;5065970;28;19978;-68
2022/06/15 10:30:49;;;;;;;;;;;23.70;28.70;;;;;;5064349;28;19928;-69
2022/06/15 10:33:19;;;;;;;;;;;23.40;30.30;;;;;;5063958;28;20348;-70
2022/06/15 10:35:50;;;;;;;;;;;23.60;29.10;;;;;;5067480;28;19925;-69
2022/06/15 10:38:18;;;;;;;;;;;23.80;28.30;;;;;;5066426;28;19975;-70
2022/06/15 10:40:52;;;;;;;;;;;23.80;29.00;;;;;;5065503;28;19963;-70
2022/06/15 10:43:20;;;;;;;;;;;23.60;29.30;;;;;;5072975;28;19975;-70
2022/06/15 10:45:55;;;;;;;;;;;23.70;30.10;;;;;;5063737;28;20325;-70
2022/06/15 10:48:25;;;;;;;;;;;23.80;29.10;;;;;;5062119;28;19932;-68
2022/06/15 10:50:57;;;;;;;;;;;24.10;29.30;;;;;;5062035;28;19928;-68
2022/06/15 10:53:27;;;;;;;;;;;24.00;30.20;;;;;;5066795;28;19924;-70
2022/06/15 11:04:31;;;;;;;;;;;24.60;29.40;;;;;;5023418;28;19932;-68
2022/06/15 11:07:03;;;;;;;;;;;24.00;29.80;;;;;;5064155;28;20016;-69
2022/06/15 11:09:33;;;;;;;;;;;24.00;29.80;;;;;;5066134;28;19924;-69
2022/06/15 11:12:04;;;;;;;;;;;24.40;28.50;;;;;;5064469;28;20013;-72
2022/06/15 11:14:32;;;;;;;;;;;24.30;30.50;;;;;;5064278;28;20503;-68
2022/06/15 11:19:56;;;;;;;;;;;24.10;28.90;;;;;;5051829;28;20410;-68
2022/06/15 11:22:24;;;;;;;;;;;24.10;28.60;;;;;;5058972;28;19968;-68
2022/06/15 11:24:55;;;;;;;;;;;24.40;28.50;;;;;;5055675;28;19952;-70
2022/06/15 11:27:24;;;;;;;;;;;24.50;29.20;;;;;;5056621;28;20429;-70
2022/06/15 11:29:53;;;;;;;;;;;24.70;27.70;;;;;;5053927;28;19936;-69
2022/06/15 11:32:35;;;;;;;;;;;25.00;27.10;;;;;;5056465;28;20418;-70
2022/06/15 11:35:07;;;;;;;;;;;24.10;28.20;;;;;;5053409;28;19933;-69
2022/06/15 11:37:39;;;;;;;;;;;24.40;28.20;;;;;;5056709;28;19933;-68
2022/06/15 11:40:15;;;;;;;;;;;24.20;28.00;;;;;;5056487;28;19925;-68
2022/06/15 11:42:43;;;;;;;;;;;24.70;28.00;;;;;;5058226;28;19929;-70
2022/06/15 11:45:13;;;;;;;;;;;24.70;27.70;;;;;;5058798;28;20459;-70
2022/06/15 11:47:48;;;;;;;;;;;24.30;28.10;;;;;;5058816;28;19924;-69
2022/06/15 11:50:18;;;;;;;;;;;24.30;27.40;;;;;;5064399;28;20031;-69
2022/06/15 11:52:54;;;;;;;;;;;24.40;27.50;;;;;;5065372;28;20026;-69
2022/06/15 11:55:33;;;;;;;;;;;24.80;27.60;;;;;;5060971;28;20395;-69
2022/06/15 11:58:14;;;;;;;;;;;25.40;26.80;;;;;;5059587;28;19955;-69
2022/06/15 12:00:44;;;;;;;;;;;25.80;26.60;;;;;;5062967;28;19924;-68
2022/06/15 12:03:28;;;;;;;;;;;26.00;25.00;;;;;;5059418;28;20033;-69
2022/06/15 12:05:59;;;;;;;;;;;26.10;25.10;;;;;;5064317;28;19952;-69
2022/06/15 12:08:31;;;;;;;;;;;25.70;26.30;;;;;;5064344;28;19932;-69
2022/06/15 12:11:01;;;;;;;;;;;24.80;24.70;;;;;;5071100;28;20374;-68
2022/06/15 12:13:37;;;;;;;;;;;24.80;25.90;;;;;;5061800;28;20446;-69
2022/06/15 12:16:07;;;;;;;;;;;24.60;26.50;;;;;;5064404;28;19931;-68
2022/06/15 12:18:45;;;;;;;;;;;24.80;26.60;;;;;;5067376;28;19988;-69
2022/06/15 12:21:15;;;;;;;;;;;25.30;25.70;;;;;;5068934;28;20401;-68
2022/06/15 12:23:43;;;;;;;;;;;25.60;25.80;;;;;;5070478;28;20134;-68
2022/06/15 12:26:17;;;;;;;;;;;25.80;24.90;;;;;;5075119;28;20477;-67
2022/06/15 12:28:47;;;;;;;;;;;25.90;25.50;;;;;;5065103;28;19996;-68
2022/06/15 12:31:19;;;;;;;;;;;25.70;24.80;;;;;;5063561;28;19935;-68
2022/06/15 12:33:50;;;;;;;;;;;25.50;25.00;;;;;;5064093;28;20012;-68
2022/06/15 12:36:21;;;;;;;;;;;26.00;23.90;;;;;;5063190;28;20458;-67
2022/06/15 12:38:53;;;;;;;;;;;25.80;25.00;;;;;;5067123;28;20015;-66
2022/06/15 12:44:13;;;;;;;;;;;25.30;23.80;;;;;;5067473;28;19932;-68
2022/06/15 12:46:40;;;;;;;;;;;25.80;22.60;;;;;;5062127;28;19960;-68
2022/06/15 12:49:12;;;;;;;;;;;26.30;22.80;;;;;;5054657;28;19987;-68
2022/06/15 12:51:43;;;;;;;;;;;25.90;23.80;;;;;;5058752;28;19978;-68
2022/06/15 12:54:14;;;;;;;;;;;25.40;24.20;;;;;;5055834;28;20059;-68
2022/06/15 12:56:48;;;;;;;;;;;25.40;25.10;;;;;;5062104;28;19975;-67
2022/06/15 12:59:24;;;;;;;;;;;25.70;25.60;;;;;;5062126;28;20033;-67
2022/06/15 13:01:54;;;;;;;;;;;26.20;24.10;;;;;;5065747;28;19968;-67
2022/06/15 13:04:27;;;;;;;;;;;26.80;22.70;;;;;;5066880;28;19924;-67
2022/06/15 13:07:09;;;;;;;;;;;26.80;22.10;;;;;;5062109;28;20014;-68
2022/06/15 13:09:35;;;;;;;;;;;25.90;22.50;;;;;;5056081;28;20346;-67
2022/06/15 13:12:08;;;;;;;;;;;25.80;24.10;;;;;;5060009;28;20351;-69
2022/06/15 13:14:36;;;;;;;;;;;25.70;25.00;;;;;;5053278;28;19990;-68
2022/06/15 13:17:07;;;;;;;;;;;25.70;24.50;;;;;;5054081;28;19935;-68
2022/06/15 13:19:36;;;;;;;;;;;25.60;24.60;;;;;;5054768;28;20031;-68
2022/06/15 13:22:23;;;;;;;;;;;25.60;23.90;;;;;;5055505;28;19992;-68
2022/06/15 13:24:52;;;;;;;;;;;25.50;22.70;;;;;;5050637;28;20015;-68
2022/06/15 13:27:22;;;;;;;;;;;26.00;21.90;;;;;;5055429;28;19928;-68
2022/06/15 13:29:50;;;;;;;;;;;26.40;21.10;;;;;;5054301;28;20103;-68
2022/06/15 13:32:39;;;;;;;;;;;25.60;22.30;;;;;;5054093;28;20439;-68
2022/06/15 13:35:18;;;;;;;;;;;26.10;21.00;;;;;;5056457;28;20019;-68
2022/06/15 13:37:56;;;;;;;;;;;26.40;19.40;;;;;;5055889;28;19982;-69
2022/06/15 13:40:22;;;;;;;;;;;26.80;19.50;;;;;;5055548;28;20426;-68
2022/06/15 13:43:03;;;;;;;;;;;26.90;17.70;;;;;;5054890;28;19939;-68
2022/06/15 13:45:40;;;;;;;;;;;27.30;18.10;;;;;;5055637;28;19939;-68
2022/06/15 13:48:09;;;;;;;;;;;27.00;18.20;;;;;;5054678;28;19933;-68
2022/06/15 13:50:40;;;;;;;;;;;26.10;18.20;;;;;;5054253;28;20019;-68
2022/06/15 13:53:12;;;;;;;;;;;26.40;21.10;;;;;;5054978;28;19925;-68
2022/06/15 13:55:58;;;;;;;;;;;27.00;20.30;;;;;;5055690;28;20122;-68
2022/06/15 13:58:31;;;;;;;;;;;27.10;20.10;;;;;;5062507;28;20352;-68
2022/06/15 14:01:19;;;;;;;;;;;27.30;20.60;;;;;;5058486;28;20452;-69
2022/06/15 14:03:55;;;;;;;;;;;27.40;20.20;;;;;;5050866;28;19928;-68
2022/06/15 14:06:34;;;;;;;;;;;28.10;17.40;;;;;;5065584;28;20445;-69
2022/06/15 14:09:09;;;;;;;;;;;28.60;17.70;;;;;;5066412;28;19956;-68
2022/06/15 14:11:54;;;;;;;;;;;28.70;16.90;;;;;;5054551;28;20023;-68
2022/06/15 14:14:28;;;;;;;;;;;27.40;18.20;;;;;;5053727;28;19983;-69
2022/06/15 14:17:24;;;;;;;;;;;27.10;19.20;;;;;;5054287;28;21916;-69
2022/06/15 14:19:56;;;;;;;;;;;27.80;18.60;;;;;;5059453;28;20008;-69
2022/06/15 14:22:24;;;;;;;;;;;28.20;17.30;;;;;;5053577;28;19932;-69
2022/06/15 14:25:00;;;;;;;;;;;27.70;17.80;;;;;;5060339;28;19960;-68
2022/06/15 14:27:29;;;;;;;;;;;27.70;16.40;;;;;;5061303;28;20015;-69
2022/06/15 14:29:58;;;;;;;;;;;27.70;17.40;;;;;;5055159;28;20435;-69
2022/06/15 14:32:27;;;;;;;;;;;27.60;19.00;;;;;;5054746;28;19925;-69
2022/06/15 14:35:01;;;;;;;;;;;26.80;18.70;;;;;;5057129;28;20303;-70
2022/06/15 14:37:27;;;;;;;;;;;26.50;18.80;;;;;;5062319;28;19977;-67
2022/06/15 14:39:55;;;;;;;;;;;26.90;18.90;;;;;;5061288;28;20026;-69
2022/06/15 14:42:23;;;;;;;;;;;26.80;19.30;;;;;;5060311;28;19932;-69
2022/06/15 14:44:51;;;;;;;;;;;26.60;19.40;;;;;;5059109;28;20010;-69
2022/06/15 14:47:20;;;;;;;;;;;26.60;19.10;;;;;;5059491;28;20225;-69
2022/06/15 14:49:50;;;;;;;;;;;27.00;18.20;;;;;;5064289;28;20009;-68
2022/06/15 14:52:23;;;;;;;;;;;26.90;17.90;;;;;;5058292;28;19925;-68
2022/06/15 14:54:51;;;;;;;;;;;26.60;19.20;;;;;;5069910;28;19928;-68